Flight Track Log - Related Links

Times and Time Zones

All times are in EDT time to prevent confusion due to time zone crossing. See the ASQ5941 flight status page for this flight to view local times or setup timezone preferences in your user account.

Time Position Orientation Groundspeed Altitude Reporting Facility
EDT Latitude Longitude Course Direction KTS MPH feet Rate Location/Type
Mon 03:30:40 PM 42.0333 -87.9167 80° East 209 241 3,200  Level Chicago TRACON
Mon 03:31:40 PM 42.0333 -87.8333 90° East 265 305 4,600 1,667 Climbing Chicago TRACON
Mon 03:33:00 PM 42.0572 -87.3204 78° East  Level FlightAware Approximate
Mon 03:33:58 PM 42.0592 -87.6022 81° East 281 323 8,700  Level Chicago Center
Mon 03:34:00 PM 42.0798 -87.1734 78° East  Level FlightAware Approximate
Mon 03:35:00 PM 42.1000 -87.0261 90° East  Level FlightAware Approximate
Mon 03:35:00 PM 42.0703 -87.4922 82° East 293 337 10,700  Level Chicago Center
Mon 03:36:00 PM 42.1118 -86.9055 80° East  Level FlightAware Approximate
Mon 03:36:02 PM 42.0814 -87.3781 82° East 305 351 12,700  Level Chicago Center
Mon 03:37:04 PM 42.0928 -87.2578 83° East 322 371 13,700 919 Climbing Chicago Center
Mon 03:38:06 PM 42.1067 -87.1236 82° East 356 410 14,600 1,161 Climbing Chicago Center
Mon 03:39:08 PM 42.1164 -86.9547 86° East 376 433 16,100 1,355 Climbing Chicago Center
Mon 03:40:10 PM 42.1214 -86.8114 87° East 383 441 17,400 1,065 Climbing Chicago Center
Mon 03:41:12 PM 42.1264 -86.6808 87° East 388 447 18,300 1,104 Climbing Chicago Center
Mon 03:42:15 PM 42.1322 -86.5028 87° East 397 457 19,700 1,152 Climbing Chicago Center
Mon 03:43:17 PM 42.1369 -86.3514 88° East 403 464 20,700 1,016 Climbing Chicago Center
Mon 03:44:19 PM 42.1411 -86.1964 88° East 412 474 21,800 1,016 Climbing Chicago Center
Mon 03:45:21 PM 42.1433 -86.0392 89° East 418 481 22,800 1,161 Climbing Chicago Center
Mon 03:46:23 PM 42.1425 -85.8639 90° East 418 481 24,200 1,355 Climbing Chicago Center
Mon 03:47:25 PM 42.1403 -85.7114 91° East 412 474 25,600 1,355 Climbing Chicago Center
Mon 03:48:27 PM 42.1386 -85.5614 91° East 404 465 27,000 1,355 Climbing Chicago Center
Mon 03:49:29 PM 42.1372 -85.4175 91° East 391 450 28,400 1,353 Climbing Chicago Center
Mon 03:50:09 PM 42.1397 -85.3164 88° East 389 448 29,300 1,260 Climbing Cleveland Center
Mon 03:51:09 PM 42.1375 -85.1619 91° East 384 442 30,500 1,200 Climbing Cleveland Center
Mon 03:52:09 PM 42.1350 -85.0161 91° East 384 442 31,700 1,150 Climbing Cleveland Center
Mon 03:53:09 PM 42.1319 -84.8731 92° East 384 442 32,800 1,150 Climbing Cleveland Center
Mon 03:54:09 PM 42.1289 -84.7328 92° East 384 442 34,000 1,050 Climbing Cleveland Center
Mon 03:55:09 PM 42.1278 -84.5900 91° East 384 442 34,900 500 Climbing Cleveland Center
Mon 03:56:09 PM 42.1264 -84.4442 91° East 384 442 35,000 50 Climbing Cleveland Center
Mon 03:57:09 PM 42.1369 -84.3133 84° East 384 442 35,000  Level Cleveland Center
Mon 03:58:09 PM 42.1542 -84.1631 81° East 390 449 35,000  Level Cleveland Center
Mon 03:59:09 PM 42.1614 -83.9953 87° East 412 474 35,000  Level Cleveland Center
Mon 04:00:09 PM 42.1581 -83.8269 91° East 430 495 35,000  Level Cleveland Center
Mon 04:01:09 PM 42.1519 -83.6642 93° East 442 509 35,000  Level Cleveland Center
Mon 04:02:09 PM 42.1506 -83.4764 91° East 442 509 35,000  Level Cleveland Center
Mon 04:03:09 PM 42.1444 -83.3053 93° East 442 509 35,000  Level Cleveland Center
Mon 04:04:09 PM 42.1381 -83.1314 93° East 454 522 35,000  Level Cleveland Center
Mon 04:05:09 PM 42.1356 -82.9575 91° East 459 528 35,000  Level Cleveland Center
Mon 04:06:09 PM 42.1306 -82.7867 92° East 459 528 35,000  Level Cleveland Center
Mon 04:07:09 PM 42.1233 -82.6183 93° East 459 528 35,000  Level Cleveland Center
Mon 04:08:09 PM 42.1200 -82.4419 91° East 459 528 35,000  Level Cleveland Center
Mon 04:09:09 PM 42.1122 -82.2767 94° East 459 528 35,000  Level Cleveland Center
Mon 04:10:09 PM 42.1058 -82.1225 93° East 454 522 35,000  Level Cleveland Center
Mon 04:11:09 PM 42.0997 -81.9517 93° East 454 522 35,000  Level Cleveland Center
Mon 04:12:09 PM 42.0936 -81.7639 92° East 459 528 35,000  Level Cleveland Center
Mon 04:13:09 PM 42.0847 -81.5903 94° East 464 534 35,000  Level Cleveland Center
Mon 04:15:09 PM 42.0706 -81.2489 93° East 459 528 35,000  Level Cleveland Center
Mon 04:16:09 PM 42.0611 -81.0808 94° East 459 528 35,000  Level Cleveland Center
Mon 04:17:09 PM 42.0533 -80.9103 93° East 459 528 35,000  Level Cleveland Center
Mon 04:18:09 PM 42.0453 -80.7369 94° East 459 528 35,000  Level Cleveland Center
Mon 04:19:09 PM 42.0372 -80.5803 94° East 465 535 35,000 -500 Level Cleveland Center
Mon 04:20:09 PM 42.0286 -80.4014 94° East 465 535 34,000 -950 Descending Cleveland Center
Mon 04:21:09 PM 42.0178 -80.2311 95° East 459 528 33,100 -500 Descending Cleveland Center
Mon 04:22:09 PM 42.0047 -80.0550 96° East 464 534 33,000 -50 Descending Cleveland Center
Mon 04:23:09 PM 41.9847 -79.8681 98° East 464 534 33,000  Level Cleveland Center
Mon 04:24:09 PM 41.9692 -79.6950 97° East 464 534 33,000  Level Cleveland Center
Mon 04:25:09 PM 41.9508 -79.5194 98° East 464 534 33,000  Level Cleveland Center
Mon 04:26:09 PM 41.9325 -79.3494 98° East 464 534 33,000  Level Cleveland Center
Mon 04:27:09 PM 41.9183 -79.1936 97° East 464 534 33,000  Level Cleveland Center
Mon 04:28:09 PM 41.8994 -79.0181 98° East 464 534 33,000  Level Cleveland Center
Mon 04:29:09 PM 41.8756 -78.8264 99° East 464 534 33,000  Level Cleveland Center
Mon 04:30:09 PM 41.8583 -78.6511 97° East 464 534 33,000 -650 Level Cleveland Center
Mon 04:31:09 PM 41.8386 -78.4789 99° East 464 534 31,700 -1,900 Descending Cleveland Center
Mon 04:32:09 PM 41.8186 -78.3039 99° East 464 534 29,200 -2,600 Descending Cleveland Center
Mon 04:33:09 PM 41.7986 -78.1375 99° East 464 534 26,500 -2,400 Descending Cleveland Center
Mon 04:33:54 PM 41.7889 -78.0347 97° East 437 503 25,000 -1,925 Descending New York Center
Mon 04:34:55 PM 41.7694 -77.8714 99° East 431 496 23,100 -992 Descending New York Center
Mon 04:35:55 PM 41.7517 -77.7136 99° East 431 496 23,000 -50 Descending New York Center
Mon 04:36:56 PM 41.7339 -77.5533 98° East 431 496 23,000 -153 Level New York Center
Mon 04:37:53 PM 41.7106 -77.3786 100° East 431 496 22,700 -756 Descending New York Center
Mon 04:38:55 PM 41.6900 -77.2211 100° East 431 496 21,500 -1,574 Descending New York Center
Mon 04:39:55 PM 41.6714 -77.0608 99° East 431 496 19,500 -1,950 Descending New York Center
Mon 04:40:55 PM 41.6522 -76.9119 100° East 431 496 17,600 -1,934 Descending New York Center
Mon 04:41:56 PM 41.6328 -76.7631 100° East 421 484 15,600 -2,085 Descending New York Center
Mon 04:42:53 PM 41.6147 -76.6200 100° East 398 458 13,500 -2,085 Descending New York Center
Mon 04:43:54 PM 41.5983 -76.4853 99° East 378 435 11,500 -1,574 Descending New York Center
Mon 04:44:55 PM 41.5833 -76.3675 100° East 338 389 10,300 -1,339 Descending New York Center
Mon 04:45:55 PM 41.5711 -76.2722 100° East 299 344 8,800 -1,613 Descending New York Center
Mon 04:46:54 PM 41.5569 -76.1683 100° East 286 329 7,100 -1,700 Descending New York Center
Mon 04:47:55 PM 41.5178 -76.0711 118° Southeast 267 307 5,400 -1,475 Descending New York Center
Mon 04:48:56 PM 41.4881 -75.9883 116° Southeast 257 296 4,100 -706 Descending New York Center
Mon 04:49:54 PM 41.4858 -75.8969 92° East 245 282 4,000 -51 Descending New York Center
Mon 04:50:54 PM 41.4981 -75.8064 80° East 235 270 4,000  Level New York Center
Mon 04:51:53 PM 41.5106 -75.7075 80° East 246 283 4,000 -150 Level New York Center
Mon 04:52:54 PM 41.4864 -75.6339 114° Southeast 241 277 3,700 -295 Descending New York Center

Login

Don't have an account? Register now (free) for customized features, flight alerts, and more!